createdAt,value
2017-07-23T00:00:41.779Z,85.8
2017-07-23T00:01:42.544Z,85.5
2017-07-23T00:02:43.436Z,86.0
2017-07-23T00:03:44.324Z,85.6
2017-07-23T00:04:45.290Z,86.0
2017-07-23T00:05:46.354Z,86.0
2017-07-23T00:06:48.113Z,86.4
2017-07-23T00:07:49.008Z,86.4
2017-07-23T00:08:49.869Z,86.0
2017-07-23T00:09:50.662Z,86.4
2017-07-23T00:10:51.494Z,85.8
2017-07-23T00:11:52.278Z,85.5
2017-07-23T00:12:53.093Z,85.9
2017-07-23T00:13:54.071Z,85.8
2017-07-23T00:14:55.079Z,85.8
2017-07-23T00:15:56.033Z,86.7
2017-07-23T00:16:56.938Z,85.9
2017-07-23T00:17:58.089Z,85.8
2017-07-23T00:18:59.578Z,85.6
2017-07-23T00:20:00.769Z,85.6
2017-07-23T00:21:01.821Z,85.4
2017-07-23T00:22:03.263Z,86.1
2017-07-23T00:23:04.294Z,85.3
2017-07-23T00:24:05.042Z,85.2
2017-07-23T00:25:05.973Z,85.1
2017-07-23T00:26:06.994Z,85.4
2017-07-23T00:27:07.915Z,86.1
2017-07-23T00:28:08.707Z,86.2
2017-07-23T00:29:09.937Z,85.6
2017-07-23T00:30:11.128Z,86.1
2017-07-23T00:31:11.951Z,86.6
2017-07-23T00:32:12.868Z,86.3
2017-07-23T00:33:13.682Z,86.7
2017-07-23T00:34:14.879Z,86.4
2017-07-23T00:35:16.119Z,86.6
2017-07-23T00:36:17.158Z,86.4
2017-07-23T00:37:18.162Z,86.6
2017-07-23T00:38:19.372Z,86.0
2017-07-23T00:39:20.158Z,86.2
2017-07-23T00:40:21.036Z,86.7
2017-07-23T00:41:21.903Z,86.3
2017-07-23T00:42:23.095Z,87.0
2017-07-23T00:43:23.899Z,86.5
2017-07-23T00:44:24.958Z,86.4
2017-07-23T00:45:26.153Z,86.4
2017-07-23T00:46:27.115Z,86.8
2017-07-23T00:47:28.163Z,85.8
2017-07-23T00:48:29.009Z,86.7
2017-07-23T00:49:29.898Z,86.9
2017-07-23T00:50:30.671Z,86.2
2017-07-23T00:51:31.653Z,86.4
2017-07-23T00:52:32.622Z,86.4
2017-07-23T00:53:33.419Z,86.8
2017-07-23T00:54:34.334Z,86.5
2017-07-23T00:55:35.297Z,86.1
2017-07-23T00:56:36.397Z,85.5
2017-07-23T00:57:37.217Z,85.5
2017-07-23T00:58:38.110Z,85.6
2017-07-23T00:59:38.913Z,85.5
2017-07-23T01:00:39.920Z,85.8
2017-07-23T01:01:41.006Z,85.7
2017-07-23T01:02:41.936Z,84.9
2017-07-23T01:03:42.961Z,85.3
2017-07-23T01:04:43.850Z,84.9
2017-07-23T01:05:44.743Z,85.1
2017-07-23T01:06:45.629Z,84.6
2017-07-23T01:07:46.464Z,84.6
2017-07-23T01:08:47.289Z,85.5
2017-07-23T01:09:48.121Z,84.7
2017-07-23T01:10:49.347Z,84.5
2017-07-23T01:11:50.422Z,84.5
2017-07-23T01:12:51.906Z,84.8
2017-07-23T01:13:52.717Z,84.3
2017-07-23T01:14:53.545Z,84.1
2017-07-23T01:15:54.661Z,84.4
2017-07-23T01:16:55.493Z,84.6
2017-07-23T01:17:56.253Z,84.7
2017-07-23T01:18:57.065Z,84.7
2017-07-23T01:19:57.979Z,84.4
2017-07-23T01:20:58.783Z,84.6
2017-07-23T01:21:59.635Z,85.2
2017-07-23T01:23:00.432Z,84.5
2017-07-23T01:24:01.593Z,84.2
2017-07-23T01:25:02.654Z,84.9
2017-07-23T01:26:03.452Z,84.7
2017-07-23T01:27:04.451Z,85.0
2017-07-23T01:28:05.473Z,85.0
2017-07-23T01:29:06.341Z,85.4
2017-07-23T01:30:07.197Z,84.8
2017-07-23T01:31:07.994Z,85.3
2017-07-23T01:32:08.758Z,84.7
2017-07-23T01:33:09.646Z,85.3
2017-07-23T01:34:10.467Z,84.4
2017-07-23T01:35:11.250Z,84.8
2017-07-23T01:36:12.025Z,84.0
2017-07-23T01:37:12.902Z,84.7
2017-07-23T01:38:13.681Z,85.4
2017-07-23T01:39:14.526Z,84.6
2017-07-23T01:40:15.369Z,84.2
2017-07-23T01:41:16.193Z,84.7
2017-07-23T01:42:17.185Z,84.4
2017-07-23T01:43:17.971Z,84.4
2017-07-23T01:44:18.811Z,83.9
2017-07-23T01:45:19.769Z,83.9
2017-07-23T01:46:21.408Z,83.0
2017-07-23T01:47:22.370Z,84.3
2017-07-23T01:48:23.623Z,83.4
2017-07-23T01:49:24.441Z,83.4
2017-07-23T01:50:25.263Z,83.8
2017-07-23T01:51:26.011Z,83.7
2017-07-23T01:52:26.801Z,83.7
2017-07-23T01:53:27.961Z,84.1
2017-07-23T01:54:29.633Z,83.8
2017-07-23T01:55:30.460Z,83.0
2017-07-23T01:56:31.223Z,82.8
2017-07-23T01:57:32.028Z,82.3
2017-07-23T01:58:32.802Z,82.1
2017-07-23T01:59:33.648Z,83.1
2017-07-23T02:00:35.081Z,84.0
2017-07-23T02:01:35.864Z,85.2
2017-07-23T02:02:36.708Z,85.1
2017-07-23T02:03:37.461Z,85.0
2017-07-23T02:04:38.431Z,85.3
2017-07-23T02:05:39.124Z,85.6
2017-07-23T02:06:40.011Z,85.2
2017-07-23T02:07:40.851Z,85.0
2017-07-23T02:08:41.771Z,84.1
2017-07-23T02:09:42.521Z,84.4
2017-07-23T02:10:43.340Z,85.2
2017-07-23T02:11:44.089Z,85.3
2017-07-23T02:12:44.935Z,84.3
2017-07-23T02:13:45.698Z,84.4
2017-07-23T02:14:46.551Z,84.2
2017-07-23T02:15:47.417Z,83.5
2017-07-23T02:16:48.325Z,84.0
2017-07-23T02:17:49.090Z,84.6
2017-07-23T02:18:49.828Z,84.8
2017-07-23T02:19:50.619Z,84.3
2017-07-23T02:20:51.410Z,84.4
2017-07-23T02:21:52.223Z,84.2
2017-07-23T02:22:53.047Z,83.7
2017-07-23T02:23:53.895Z,83.0
2017-07-23T02:24:54.712Z,83.2
2017-07-23T02:25:55.550Z,83.2
2017-07-23T02:26:56.379Z,83.0
2017-07-23T02:27:57.168Z,83.4
2017-07-23T02:28:57.887Z,83.5
2017-07-23T02:29:58.692Z,84.1
2017-07-23T02:30:59.531Z,84.2
2017-07-23T02:32:00.616Z,84.5
2017-07-23T02:33:01.616Z,85.0
2017-07-23T02:34:02.753Z,85.3
2017-07-23T02:35:03.514Z,84.6
2017-07-23T02:36:04.724Z,85.0
2017-07-23T02:37:05.523Z,84.3
2017-07-23T02:38:06.315Z,85.1
2017-07-23T02:39:07.070Z,84.1
2017-07-23T02:40:08.039Z,84.8
2017-07-23T02:41:08.854Z,85.1
2017-07-23T02:42:09.857Z,85.1
2017-07-23T02:43:10.585Z,84.3
2017-07-23T02:44:11.414Z,85.1
2017-07-23T02:45:12.774Z,84.4
2017-07-23T02:46:13.674Z,84.6
2017-07-23T02:47:14.442Z,84.3
2017-07-23T02:48:15.406Z,84.2
2017-07-23T02:49:16.191Z,85.0
2017-07-23T02:50:16.963Z,85.3
2017-07-23T02:51:17.717Z,85.1
2017-07-23T02:52:18.541Z,84.0
2017-07-23T02:53:19.361Z,85.3
2017-07-23T02:54:20.142Z,85.1
2017-07-23T02:55:20.912Z,85.2
2017-07-23T02:56:21.743Z,85.1
2017-07-23T02:57:22.493Z,85.5
2017-07-23T02:58:23.238Z,85.2
2017-07-23T02:59:24.133Z,85.3
2017-07-23T03:00:25.132Z,84.7
2017-07-23T03:01:26.268Z,84.5
2017-07-23T03:02:27.095Z,83.6
2017-07-23T03:03:27.836Z,83.2
2017-07-23T03:04:28.573Z,84.6
2017-07-23T03:05:29.415Z,84.1
2017-07-23T03:06:30.206Z,84.4
2017-07-23T03:07:30.930Z,83.8
2017-07-23T03:08:31.825Z,83.7
2017-07-23T03:09:32.709Z,84.1
2017-07-23T03:10:33.550Z,84.6
2017-07-23T03:11:34.371Z,84.1
2017-07-23T03:12:35.177Z,83.3
2017-07-23T03:13:36.014Z,83.1
2017-07-23T03:14:36.894Z,84.3
2017-07-23T03:15:37.655Z,83.4
2017-07-23T03:16:38.470Z,84.2
2017-07-23T03:17:39.204Z,84.6
2017-07-23T03:18:40.042Z,84.5
2017-07-23T03:19:40.947Z,85.3
2017-07-23T03:20:41.895Z,84.2
2017-07-23T03:21:42.646Z,83.9
2017-07-23T03:22:43.444Z,84.5
2017-07-23T03:23:44.234Z,85.0
2017-07-23T03:24:45.073Z,85.1
2017-07-23T03:25:45.917Z,85.4
2017-07-23T03:26:46.676Z,85.0
2017-07-23T03:27:47.552Z,85.6
2017-07-23T03:28:48.548Z,85.2
2017-07-23T03:29:49.336Z,85.4
2017-07-23T03:30:50.189Z,84.6
2017-07-23T03:31:50.991Z,85.3
2017-07-23T03:32:51.845Z,85.4
2017-07-23T03:33:52.621Z,84.9
2017-07-23T03:34:53.463Z,84.5
2017-07-23T03:35:54.427Z,84.3
2017-07-23T03:36:55.307Z,85.0
2017-07-23T03:37:56.100Z,85.1
2017-07-23T03:38:56.899Z,85.0
2017-07-23T03:39:58.018Z,85.5
2017-07-23T03:40:58.903Z,85.9
2017-07-23T03:41:59.839Z,85.5
2017-07-23T03:43:00.617Z,85.6
2017-07-23T03:44:01.426Z,85.5
2017-07-23T03:45:02.277Z,86.2
2017-07-23T03:46:03.124Z,85.5
2017-07-23T03:47:03.893Z,86.2
2017-07-23T03:48:04.743Z,85.9
2017-07-23T03:49:05.575Z,86.0
2017-07-23T03:50:06.383Z,86.9
2017-07-23T03:51:07.140Z,87.0
2017-07-23T03:52:07.886Z,87.1
2017-07-23T03:53:08.717Z,86.6
2017-07-23T03:54:09.547Z,86.6
2017-07-23T03:55:10.310Z,87.0
2017-07-23T03:56:11.056Z,87.1
2017-07-23T03:57:11.885Z,87.4
2017-07-23T03:58:12.673Z,87.3
2017-07-23T03:59:13.452Z,87.0
2017-07-23T04:00:14.552Z,86.5
2017-07-23T04:01:15.280Z,87.0
2017-07-23T04:02:16.146Z,86.5
2017-07-23T04:03:17.118Z,87.3
2017-07-23T04:04:17.922Z,87.1
2017-07-23T04:05:18.811Z,86.8
2017-07-23T04:06:19.646Z,87.1
2017-07-23T04:07:20.475Z,87.3
2017-07-23T04:08:21.182Z,87.0
2017-07-23T04:09:22.263Z,87.1
2017-07-23T04:10:23.096Z,87.0
2017-07-23T04:11:23.863Z,87.5
2017-07-23T04:12:24.901Z,86.5
2017-07-23T04:13:25.712Z,86.5
2017-07-23T04:14:26.546Z,87.5
2017-07-23T04:15:27.482Z,86.8
2017-07-23T04:16:28.383Z,87.0
2017-07-23T04:17:29.145Z,86.5
2017-07-23T04:18:29.939Z,86.7
2017-07-23T04:19:30.882Z,86.5
2017-07-23T04:20:31.707Z,86.7
2017-07-23T04:21:32.458Z,86.5
2017-07-23T04:22:33.304Z,86.8
2017-07-23T04:23:34.110Z,86.6
2017-07-23T04:24:34.904Z,86.7
2017-07-23T04:25:35.705Z,86.7
2017-07-23T04:26:36.498Z,86.5
2017-07-23T04:27:37.347Z,86.6
2017-07-23T04:28:38.124Z,86.8
2017-07-23T04:29:38.956Z,86.3
2017-07-23T04:30:40.094Z,86.5
2017-07-23T04:31:40.863Z,86.2
2017-07-23T04:32:41.630Z,86.2
2017-07-23T04:33:42.458Z,86.7
2017-07-23T04:34:43.339Z,86.0
2017-07-23T04:35:44.182Z,85.1
2017-07-23T04:36:44.944Z,85.3
2017-07-23T04:37:45.739Z,86.0
2017-07-23T04:38:46.543Z,86.1
2017-07-23T04:39:48.120Z,84.6
2017-07-23T04:40:49.140Z,85.0
2017-07-23T04:41:49.882Z,86.2
2017-07-23T04:42:50.698Z,84.7
2017-07-23T04:43:51.510Z,86.2
2017-07-23T04:44:52.309Z,86.3
2017-07-23T04:45:53.087Z,86.0
2017-07-23T04:46:53.917Z,86.1
2017-07-23T04:47:54.697Z,86.1
2017-07-23T04:48:55.748Z,86.2
2017-07-23T04:49:56.614Z,86.2
2017-07-23T04:50:58.548Z,85.5
2017-07-23T04:51:59.391Z,85.2
2017-07-23T04:53:00.184Z,84.7
2017-07-23T04:54:00.998Z,85.0
2017-07-23T04:55:01.795Z,84.2
2017-07-23T04:56:02.522Z,85.0
2017-07-23T04:57:03.748Z,85.0
2017-07-23T04:58:04.521Z,85.9
2017-07-23T04:59:05.318Z,85.2
2017-07-23T05:00:06.169Z,85.3
2017-07-23T05:01:07.010Z,84.3
2017-07-23T05:02:07.807Z,84.4
2017-07-23T05:03:08.659Z,84.5
2017-07-23T05:04:09.487Z,84.2
2017-07-23T05:05:10.320Z,84.1
2017-07-23T05:06:11.157Z,84.5
2017-07-23T05:07:12.076Z,84.0
2017-07-23T05:08:12.929Z,83.7
2017-07-23T05:09:13.924Z,83.3
2017-07-23T05:10:15.161Z,83.0
2017-07-23T05:11:15.892Z,83.5
2017-07-23T05:12:16.718Z,83.1
2017-07-23T05:13:18.122Z,83.6
2017-07-23T05:14:19.191Z,83.4
2017-07-23T05:15:20.093Z,83.6
2017-07-23T05:16:21.023Z,83.8
2017-07-23T05:17:21.767Z,83.5
2017-07-23T05:18:22.575Z,83.2
2017-07-23T05:19:23.383Z,83.8
2017-07-23T05:20:24.225Z,84.1
2017-07-23T05:21:25.054Z,84.1
2017-07-23T05:22:25.877Z,84.0
2017-07-23T05:23:26.615Z,84.0
2017-07-23T05:24:27.414Z,84.3
2017-07-23T05:25:28.427Z,84.3
2017-07-23T05:26:29.413Z,84.8
2017-07-23T05:27:30.283Z,84.9
2017-07-23T05:28:31.049Z,84.6
2017-07-23T05:29:31.874Z,84.8
2017-07-23T05:30:32.602Z,84.6
2017-07-23T05:31:33.844Z,85.0
2017-07-23T05:32:34.667Z,85.2
2017-07-23T05:33:35.535Z,84.7
2017-07-23T05:34:36.474Z,84.6
2017-07-23T05:35:37.402Z,84.5
2017-07-23T05:36:38.274Z,84.6
2017-07-23T05:37:39.151Z,84.1
2017-07-23T05:38:40.015Z,84.3
2017-07-23T05:39:40.798Z,84.1
2017-07-23T05:40:41.939Z,84.3
2017-07-23T05:41:42.738Z,84.0
2017-07-23T05:42:43.873Z,84.3
2017-07-23T05:43:44.688Z,84.0
2017-07-23T05:44:45.486Z,83.8
2017-07-23T05:45:46.319Z,84.1
2017-07-23T05:46:47.878Z,84.1
2017-07-23T05:47:48.789Z,83.9
2017-07-23T05:48:49.578Z,84.0
2017-07-23T05:49:50.375Z,83.7
2017-07-23T05:50:51.212Z,83.5
2017-07-23T05:51:52.022Z,83.7
2017-07-23T05:52:52.817Z,83.5
2017-07-23T05:53:53.585Z,83.6
2017-07-23T05:54:54.363Z,83.9
2017-07-23T05:55:55.404Z,83.7
2017-07-23T05:56:56.694Z,83.6
2017-07-23T05:57:57.483Z,83.3
2017-07-23T05:58:58.380Z,83.9
2017-07-23T05:59:59.193Z,83.5
2017-07-23T06:01:00.163Z,83.2
2017-07-23T06:02:01.075Z,83.6
2017-07-23T06:03:01.894Z,83.2
2017-07-23T06:04:02.654Z,83.5
2017-07-23T06:05:03.506Z,83.4
2017-07-23T06:06:04.276Z,83.6
2017-07-23T06:07:05.042Z,84.2
2017-07-23T06:08:05.871Z,83.6
2017-07-23T06:09:06.670Z,83.3
2017-07-23T06:10:07.457Z,83.4
2017-07-23T06:11:08.346Z,82.8
2017-07-23T06:12:09.226Z,83.5
2017-07-23T06:13:10.084Z,83.9
2017-07-23T06:14:10.834Z,83.4
2017-07-23T06:15:11.628Z,83.7
2017-07-23T06:16:12.479Z,83.6
2017-07-23T06:17:13.362Z,83.9
2017-07-23T06:18:14.340Z,83.6
2017-07-23T06:19:15.131Z,83.3
2017-07-23T06:20:15.988Z,83.1
2017-07-23T06:21:16.823Z,83.2
2017-07-23T06:22:17.692Z,82.5
2017-07-23T06:23:18.477Z,82.0
2017-07-23T06:24:19.324Z,82.1
2017-07-23T06:25:20.123Z,82.7
2017-07-23T06:26:21.006Z,82.1
2017-07-23T06:27:21.777Z,82.0
2017-07-23T06:28:22.768Z,81.1
2017-07-23T06:29:23.581Z,80.9
2017-07-23T06:30:24.422Z,82.3
2017-07-23T06:31:25.289Z,80.3
2017-07-23T06:32:26.074Z,80.8
2017-07-23T06:33:26.847Z,82.5
2017-07-23T06:34:27.665Z,82.9
2017-07-23T06:35:28.657Z,81.5
2017-07-23T06:36:29.533Z,83.0
2017-07-23T06:37:30.420Z,77.3
2017-07-23T06:38:31.331Z,81.2
2017-07-23T06:39:32.113Z,79.2
2017-07-23T06:40:33.085Z,81.4
2017-07-23T06:41:33.865Z,82.0
2017-07-23T06:42:34.644Z,82.2
2017-07-23T06:43:35.562Z,81.9
2017-07-23T06:44:36.310Z,80.7
2017-07-23T06:45:37.157Z,80.2
2017-07-23T06:46:38.058Z,80.2
2017-07-23T06:47:39.198Z,80.7
2017-07-23T06:48:39.949Z,81.3
2017-07-23T06:49:40.803Z,81.7
2017-07-23T06:50:41.590Z,80.1
2017-07-23T06:51:42.428Z,82.1
2017-07-23T06:52:43.254Z,82.0
2017-07-23T06:53:44.067Z,80.4
2017-07-23T06:54:45.010Z,79.7
2017-07-23T06:55:45.928Z,79.1
2017-07-23T06:56:46.769Z,80.8
2017-07-23T06:57:48.078Z,80.5
2017-07-23T06:58:49.205Z,79.9
2017-07-23T06:59:49.988Z,81.4
2017-07-23T07:00:51.028Z,77.4
2017-07-23T07:01:51.915Z,80.0
2017-07-23T07:02:52.706Z,80.5
2017-07-23T07:03:53.518Z,80.6
2017-07-23T07:04:54.358Z,81.3
2017-07-23T07:05:55.276Z,79.8
2017-07-23T07:06:56.095Z,80.6
2017-07-23T07:07:57.141Z,81.4
2017-07-23T07:08:57.981Z,77.7
2017-07-23T07:09:58.806Z,78.8
2017-07-23T07:10:59.953Z,77.9
2017-07-23T07:12:00.865Z,77.2
2017-07-23T07:13:01.699Z,78.3
2017-07-23T07:14:02.508Z,78.6
2017-07-23T07:15:03.290Z,73.5
2017-07-23T07:16:04.226Z,77.2
2017-07-23T07:17:05.575Z,77.2
2017-07-23T07:18:06.419Z,76.4
2017-07-23T07:19:07.206Z,79.5
2017-07-23T07:20:08.131Z,76.9
2017-07-23T07:21:08.996Z,78.2
2017-07-23T07:22:09.992Z,77.5
2017-07-23T07:23:10.842Z,76.5
2017-07-23T07:24:11.697Z,78.9
2017-07-23T07:25:12.512Z,78.3
2017-07-23T07:26:13.357Z,76.1
2017-07-23T07:27:14.191Z,75.8
2017-07-23T07:28:14.946Z,75.5
2017-07-23T07:29:15.848Z,75.6
2017-07-23T07:30:16.692Z,73.9
2017-07-23T07:31:17.980Z,75.3
2017-07-23T07:32:18.826Z,76.1
2017-07-23T07:33:19.684Z,75.3
2017-07-23T07:34:20.605Z,74.8
2017-07-23T07:35:21.523Z,75.5
2017-07-23T07:36:22.446Z,76.2
2017-07-23T07:37:23.273Z,76.0
2017-07-23T07:38:24.092Z,74.8
2017-07-23T07:39:25.265Z,75.4
2017-07-23T07:40:26.109Z,76.3
2017-07-23T07:41:26.914Z,75.2
2017-07-23T07:42:27.894Z,75.5
2017-07-23T07:43:28.765Z,75.3
2017-07-23T07:44:29.611Z,70.6
2017-07-23T07:45:31.071Z,73.0
2017-07-23T07:46:31.872Z,71.6
2017-07-23T07:47:32.734Z,72.6
2017-07-23T07:48:33.537Z,74.2
2017-07-23T07:49:34.465Z,72.3
2017-07-23T07:50:35.224Z,74.4
2017-07-23T07:51:36.088Z,72.9
2017-07-23T07:52:36.976Z,74.3
2017-07-23T07:53:38.262Z,72.7
2017-07-23T07:54:39.359Z,71.0
2017-07-23T07:55:40.391Z,71.2
2017-07-23T07:56:41.230Z,72.4
2017-07-23T07:57:41.967Z,71.4
2017-07-23T07:58:42.963Z,71.0
2017-07-23T07:59:43.751Z,69.6
2017-07-23T08:00:44.668Z,70.7
2017-07-23T08:01:45.512Z,72.4
2017-07-23T08:02:46.295Z,72.6
2017-07-23T08:03:47.075Z,67.9
2017-07-23T08:04:47.859Z,69.6
2017-07-23T08:05:48.694Z,69.6
2017-07-23T08:06:49.825Z,70.6
2017-07-23T08:07:50.650Z,72.9
2017-07-23T08:08:51.529Z,72.3
2017-07-23T08:09:52.530Z,67.1
2017-07-23T08:10:53.340Z,70.4
2017-07-23T08:11:54.397Z,70.0
2017-07-23T08:12:55.623Z,67.4
2017-07-23T08:13:56.823Z,71.3
2017-07-23T08:14:57.557Z,68.8
2017-07-23T08:15:58.478Z,70.4
2017-07-23T08:16:59.342Z,67.8
2017-07-23T08:18:00.109Z,67.7
2017-07-23T08:19:01.076Z,67.5
2017-07-23T08:20:01.901Z,67.7
2017-07-23T08:21:02.711Z,65.4
2017-07-23T08:22:03.428Z,63.1
2017-07-23T08:23:04.453Z,64.8
2017-07-23T08:24:05.274Z,65.9
2017-07-23T08:25:06.087Z,66.1
2017-07-23T08:26:06.849Z,66.5
2017-07-23T08:27:07.600Z,63.0
2017-07-23T08:28:08.435Z,63.6
2017-07-23T08:29:09.304Z,61.5
2017-07-23T08:30:10.078Z,63.8
2017-07-23T08:31:10.893Z,63.5
2017-07-23T08:32:11.599Z,64.9
2017-07-23T08:33:12.437Z,64.6
2017-07-23T08:34:13.241Z,61.0
2017-07-23T08:35:13.994Z,61.1
2017-07-23T08:36:14.827Z,61.2
2017-07-23T08:37:15.716Z,61.7
2017-07-23T08:38:16.461Z,57.5
2017-07-23T08:39:17.286Z,59.3
2017-07-23T08:40:18.021Z,59.2
2017-07-23T08:41:18.990Z,57.8
2017-07-23T08:42:19.801Z,57.6
2017-07-23T08:43:20.626Z,59.4
2017-07-23T08:44:21.407Z,60.8
2017-07-23T08:45:22.749Z,59.9
2017-07-23T08:47:39.273Z,56.2
2017-07-23T08:48:40.216Z,58.8
2017-07-23T08:49:41.009Z,58.6
2017-07-23T08:50:41.704Z,57.8
2017-07-23T08:51:42.483Z,53.8
2017-07-23T08:52:43.416Z,55.8
2017-07-23T08:53:44.206Z,56.2
2017-07-23T08:54:45.201Z,57.3
2017-07-23T08:55:45.955Z,56.9
2017-07-23T08:56:46.762Z,55.0
2017-07-23T08:57:47.459Z,55.5
2017-07-23T08:58:48.220Z,57.4
2017-07-23T08:59:48.971Z,56.5
2017-07-23T09:00:49.742Z,54.6
2017-07-23T09:01:50.470Z,55.9
2017-07-23T09:02:51.228Z,54.7
2017-07-23T09:03:51.968Z,54.6
2017-07-23T09:04:53.122Z,53.6
2017-07-23T09:05:53.931Z,54.5
2017-07-23T09:06:54.622Z,57.6
2017-07-23T09:07:55.397Z,58.1
2017-07-23T09:08:56.111Z,54.6
2017-07-23T09:09:56.928Z,54.0
2017-07-23T09:10:57.704Z,53.6
2017-07-23T09:11:58.460Z,52.1
2017-07-23T09:12:59.194Z,53.6
2017-07-23T09:13:59.926Z,52.3
2017-07-23T09:15:00.629Z,50.8
2017-07-23T09:16:01.667Z,52.3
2017-07-23T09:17:02.595Z,52.5
2017-07-23T09:18:03.777Z,53.0
2017-07-23T09:19:04.983Z,52.4
2017-07-23T09:20:05.741Z,51.3
2017-07-23T09:21:06.558Z,52.7
2017-07-23T09:22:07.332Z,53.8
2017-07-23T09:23:08.224Z,52.8
2017-07-23T09:24:08.969Z,55.0
2017-07-23T09:25:09.727Z,54.9
2017-07-23T09:26:10.462Z,55.8
2017-07-23T09:27:11.274Z,52.9
2017-07-23T09:28:12.228Z,51.3
2017-07-23T09:29:12.961Z,53.6
2017-07-23T09:30:13.903Z,53.1
2017-07-23T09:31:14.801Z,50.6
2017-07-23T09:32:15.734Z,51.9
2017-07-23T09:33:16.672Z,54.5
2017-07-23T09:34:17.781Z,49.3
2017-07-23T09:35:18.514Z,48.7
2017-07-23T09:36:19.314Z,50.2
2017-07-23T09:37:20.020Z,50.5
2017-07-23T09:38:20.802Z,47.0
2017-07-23T09:39:21.518Z,48.8
2017-07-23T09:40:22.405Z,50.1
2017-07-23T09:41:23.525Z,49.6
2017-07-23T09:42:24.289Z,52.5
2017-07-23T09:43:25.089Z,49.5
2017-07-23T09:44:25.800Z,48.8
2017-07-23T09:45:26.631Z,49.0
2017-07-23T09:46:27.508Z,55.8
2017-07-23T09:47:28.494Z,54.7
2017-07-23T09:48:29.426Z,51.5
2017-07-23T09:49:30.205Z,48.8
2017-07-23T09:50:30.950Z,47.2
2017-07-23T09:51:31.754Z,47.1
2017-07-23T09:52:32.548Z,47.5
2017-07-23T09:53:33.278Z,48.8
2017-07-23T09:54:34.093Z,50.2
2017-07-23T09:55:34.995Z,48.0
2017-07-23T09:56:35.864Z,46.4
2017-07-23T09:57:37.028Z,50.3
2017-07-23T09:58:37.842Z,48.6
2017-07-23T09:59:38.633Z,45.8
2017-07-23T10:00:39.393Z,45.1
2017-07-23T10:01:40.519Z,47.5
2017-07-23T10:02:41.426Z,52.3
2017-07-23T10:03:42.382Z,49.4
2017-07-23T10:04:43.330Z,44.9
2017-07-23T10:05:44.127Z,48.0
2017-07-23T10:06:44.971Z,45.9
2017-07-23T10:07:45.782Z,46.7
2017-07-23T10:08:46.605Z,48.7
2017-07-23T10:09:47.352Z,50.0
2017-07-23T10:10:48.189Z,47.0
2017-07-23T10:11:48.907Z,47.6
2017-07-23T10:12:49.813Z,49.4
2017-07-23T10:13:50.580Z,47.4
2017-07-23T10:14:51.711Z,49.5
2017-07-23T10:15:52.481Z,49.1
2017-07-23T10:16:53.329Z,47.9
2017-07-23T10:17:54.119Z,47.8
2017-07-23T10:18:55.104Z,46.0
2017-07-23T10:19:56.245Z,46.0
2017-07-23T10:20:57.057Z,46.4
2017-07-23T10:21:58.221Z,47.8
2017-07-23T10:22:59.558Z,47.3
2017-07-23T10:24:00.425Z,44.3
2017-07-23T10:25:01.306Z,45.3
2017-07-23T10:26:02.105Z,46.5
2017-07-23T10:27:02.894Z,49.0
2017-07-23T10:28:03.686Z,47.4
2017-07-23T10:29:04.678Z,47.6
2017-07-23T10:30:05.527Z,48.5
2017-07-23T10:31:06.400Z,47.6
2017-07-23T10:32:07.346Z,46.8
2017-07-23T10:33:08.218Z,43.4
2017-07-23T10:34:08.999Z,45.6
2017-07-23T10:35:09.870Z,45.3
2017-07-23T10:36:23.332Z,48.7
2017-07-23T10:37:24.086Z,48.7
2017-07-23T10:38:24.926Z,48.8
2017-07-23T10:39:25.867Z,45.1
2017-07-23T10:40:26.603Z,45.9
2017-07-23T10:41:27.378Z,47.5
2017-07-23T10:42:28.183Z,47.0
2017-07-23T10:43:29.177Z,47.7
2017-07-23T10:44:30.000Z,49.3
2017-07-23T10:45:30.965Z,44.4
2017-07-23T10:46:31.862Z,45.6
2017-07-23T10:47:32.613Z,50.4
2017-07-23T10:48:33.804Z,48.7
2017-07-23T10:49:34.826Z,48.5
2017-07-23T10:50:35.785Z,45.5
2017-07-23T10:51:36.710Z,46.6
2017-07-23T10:52:37.656Z,47.3
2017-07-23T10:53:38.441Z,47.5
2017-07-23T10:54:39.447Z,44.7
2017-07-23T10:55:40.219Z,44.4
2017-07-23T10:56:41.116Z,50.3
2017-07-23T10:57:42.147Z,45.6
2017-07-23T10:58:43.244Z,46.6
2017-07-23T10:59:44.258Z,46.4
2017-07-23T11:00:45.269Z,50.2
2017-07-23T11:01:46.065Z,47.5
2017-07-23T11:02:46.860Z,45.0
2017-07-23T11:03:48.041Z,44.4
2017-07-23T11:04:49.075Z,46.1
2017-07-23T11:05:50.364Z,44.8
2017-07-23T11:06:51.145Z,48.6
2017-07-23T11:07:52.261Z,48.6
2017-07-23T11:08:53.173Z,43.3
2017-07-23T11:09:54.088Z,42.2
2017-07-23T11:10:54.846Z,41.3
2017-07-23T11:11:55.966Z,44.9
2017-07-23T11:12:56.804Z,45.8
2017-07-23T11:13:58.003Z,44.3
2017-07-23T11:14:59.356Z,39.0
2017-07-23T11:16:00.168Z,40.3
2017-07-23T11:17:02.571Z,45.2
2017-07-23T11:18:03.615Z,42.3
2017-07-23T11:19:04.468Z,45.5
2017-07-23T11:20:05.569Z,46.6
2017-07-23T11:21:07.133Z,43.2
2017-07-23T11:22:07.870Z,40.9
2017-07-23T11:23:08.639Z,44.4
2017-07-23T11:24:10.110Z,47.4
2017-07-23T11:25:10.924Z,47.0
2017-07-23T11:26:12.042Z,45.4
2017-07-23T11:27:12.816Z,45.6
2017-07-23T11:28:13.652Z,46.6
2017-07-23T11:29:14.620Z,46.2
2017-07-23T11:30:15.777Z,49.0
2017-07-23T11:31:16.601Z,45.5
2017-07-23T11:32:17.467Z,46.1
2017-07-23T11:33:18.370Z,47.4
2017-07-23T11:34:19.224Z,45.7
2017-07-23T11:35:19.972Z,43.0
2017-07-23T11:36:20.795Z,46.3
2017-07-23T11:37:21.576Z,45.7
2017-07-23T11:38:22.420Z,44.7
2017-07-23T11:39:23.196Z,45.8
2017-07-23T11:40:24.167Z,48.7
2017-07-23T11:41:24.974Z,43.1
2017-07-23T11:42:25.721Z,46.2
2017-07-23T11:43:26.526Z,45.8
2017-07-23T11:44:27.276Z,44.9
2017-07-23T11:45:28.249Z,48.9
2017-07-23T11:46:29.318Z,46.7
2017-07-23T11:47:30.344Z,48.5
2017-07-23T11:48:31.147Z,45.4
2017-07-23T11:49:32.059Z,45.4
2017-07-23T11:50:32.836Z,47.6
2017-07-23T11:51:33.707Z,44.2
2017-07-23T11:52:34.543Z,44.7
2017-07-23T11:53:35.513Z,46.2
2017-07-23T11:54:36.428Z,43.2
2017-07-23T11:55:37.270Z,44.9
2017-07-23T11:56:38.013Z,44.0
2017-07-23T11:57:38.816Z,46.1
2017-07-23T11:58:39.607Z,45.2
2017-07-23T11:59:40.458Z,47.7
2017-07-23T12:00:41.449Z,48.1
2017-07-23T12:01:42.243Z,44.1
2017-07-23T12:02:43.067Z,44.0
2017-07-23T12:03:43.880Z,44.9
2017-07-23T12:04:44.667Z,45.2
2017-07-23T12:05:46.012Z,42.6
2017-07-23T12:06:47.124Z,43.2
2017-07-23T12:07:48.421Z,43.0
2017-07-23T12:08:49.212Z,45.8
2017-07-23T12:09:50.056Z,47.3
2017-07-23T12:10:51.081Z,42.3
2017-07-23T12:11:51.884Z,43.3
2017-07-23T12:12:52.661Z,42.5
2017-07-23T12:13:53.511Z,44.2
2017-07-23T12:14:54.300Z,44.6
2017-07-23T12:15:55.040Z,39.5
2017-07-23T12:16:56.225Z,42.0
2017-07-23T12:17:57.031Z,45.7
2017-07-23T12:18:57.890Z,41.6
2017-07-23T12:21:14.221Z,40.9
2017-07-23T12:22:14.992Z,39.5
2017-07-23T12:23:15.775Z,41.7
2017-07-23T12:24:16.562Z,41.4
2017-07-23T12:25:17.330Z,39.3
2017-07-23T12:26:18.096Z,42.0
2017-07-23T12:27:18.947Z,45.6
2017-07-23T12:28:19.718Z,42.1
2017-07-23T12:29:20.448Z,39.9
2017-07-23T12:30:21.326Z,41.6
2017-07-23T12:31:22.438Z,38.1
2017-07-23T12:32:23.222Z,40.0
2017-07-23T12:33:24.111Z,40.1
2017-07-23T12:34:24.888Z,38.9
2017-07-23T12:35:25.711Z,41.7
2017-07-23T12:36:26.491Z,40.1
2017-07-23T12:37:27.318Z,40.4
2017-07-23T12:38:28.390Z,39.6
2017-07-23T12:39:29.282Z,40.7
2017-07-23T12:40:30.347Z,41.9
2017-07-23T12:41:31.352Z,39.3
2017-07-23T12:42:32.470Z,38.6
2017-07-23T12:43:33.411Z,39.1
2017-07-23T12:44:34.313Z,43.5
2017-07-23T12:45:35.359Z,42.0
2017-07-23T12:46:36.216Z,45.6
2017-07-23T12:47:37.048Z,39.8
2017-07-23T12:48:37.868Z,42.1
2017-07-23T12:49:38.987Z,42.3
2017-07-23T12:50:40.428Z,40.4
2017-07-23T12:51:41.685Z,42.0
2017-07-23T12:52:42.505Z,39.0
2017-07-23T12:53:43.502Z,41.7
2017-07-23T12:54:44.698Z,39.2
2017-07-23T12:55:45.507Z,39.9
2017-07-23T12:56:46.413Z,39.6
2017-07-23T12:57:47.833Z,40.7
2017-07-23T12:58:49.106Z,42.2
2017-07-23T12:59:50.024Z,43.3
2017-07-23T13:00:51.258Z,43.4
2017-07-23T13:01:52.564Z,40.5
2017-07-23T13:02:53.567Z,42.4
2017-07-23T13:03:54.988Z,45.1
2017-07-23T13:04:56.220Z,41.8
2017-07-23T13:05:57.285Z,40.5
2017-07-23T13:06:58.053Z,40.8
2017-07-23T13:07:58.857Z,42.2
2017-07-23T13:09:00.012Z,42.9
2017-07-23T13:10:00.839Z,45.7
2017-07-23T13:11:01.677Z,44.9
2017-07-23T13:12:02.564Z,40.3
2017-07-23T13:13:03.630Z,40.3
2017-07-23T13:14:04.389Z,42.0
2017-07-23T13:15:05.664Z,43.1
2017-07-23T13:16:06.661Z,41.4
2017-07-23T13:17:07.795Z,40.9
2017-07-23T13:18:08.816Z,43.8
2017-07-23T13:19:09.742Z,41.3
2017-07-23T13:20:10.758Z,40.9
2017-07-23T13:21:11.985Z,41.5
2017-07-23T13:22:12.883Z,43.1
2017-07-23T13:23:13.751Z,44.7
2017-07-23T13:24:19.575Z,46.2
2017-07-23T13:25:20.339Z,40.9
2017-07-23T13:26:21.259Z,44.1
2017-07-23T13:27:22.165Z,43.9
2017-07-23T13:28:23.098Z,42.9
2017-07-23T13:29:23.981Z,45.1
2017-07-23T13:30:25.340Z,41.4
2017-07-23T13:31:26.176Z,40.9
2017-07-23T13:32:27.174Z,40.8
2017-07-23T13:33:27.958Z,41.2